sensor_id;sensor_type;location;lat;lon;timestamp;P1;durP1;ratioP1;P2;durP2;ratioP2
20474;SDS011;10396;51.724;23.090;2022-09-21T00:02:19;12.55;;;6.05;;
20474;SDS011;10396;51.724;23.090;2022-09-21T00:04:47;11.43;;;5.90;;
20474;SDS011;10396;51.724;23.090;2022-09-21T00:07:15;12.32;;;5.95;;
20474;SDS011;10396;51.724;23.090;2022-09-21T00:09:43;12.60;;;5.88;;
20474;SDS011;10396;51.724;23.090;2022-09-21T00:12:11;15.20;;;6.13;;
20474;SDS011;10396;51.724;23.090;2022-09-21T00:14:38;13.35;;;6.07;;
20474;SDS011;10396;51.724;23.090;2022-09-21T00:17:06;12.20;;;5.55;;
20474;SDS011;10396;51.724;23.090;2022-09-21T00:19:35;12.05;;;5.97;;
20474;SDS011;10396;51.724;23.090;2022-09-21T00:22:03;14.07;;;6.60;;
20474;SDS011;10396;51.724;23.090;2022-09-21T00:24:32;15.68;;;6.65;;
20474;SDS011;10396;51.724;23.090;2022-09-21T00:26:59;13.23;;;6.03;;
20474;SDS011;10396;51.724;23.090;2022-09-21T00:29:27;13.30;;;6.40;;
20474;SDS011;10396;51.724;23.090;2022-09-21T00:31:54;13.98;;;6.47;;
20474;SDS011;10396;51.724;23.090;2022-09-21T00:34:22;13.73;;;6.10;;
20474;SDS011;10396;51.724;23.090;2022-09-21T00:36:52;13.75;;;6.10;;
20474;SDS011;10396;51.724;23.090;2022-09-21T00:39:19;13.65;;;6.20;;
20474;SDS011;10396;51.724;23.090;2022-09-21T00:41:47;13.52;;;6.30;;
20474;SDS011;10396;51.724;23.090;2022-09-21T00:44:19;14.88;;;6.10;;
20474;SDS011;10396;51.724;23.090;2022-09-21T00:46:51;13.85;;;6.68;;
20474;SDS011;10396;51.724;23.090;2022-09-21T00:49:20;12.30;;;6.40;;
20474;SDS011;10396;51.724;23.090;2022-09-21T00:51:47;14.07;;;6.70;;
20474;SDS011;10396;51.724;23.090;2022-09-21T00:54:18;12.65;;;6.50;;
20474;SDS011;10396;51.724;23.090;2022-09-21T00:56:48;14.38;;;6.28;;
20474;SDS011;10396;51.724;23.090;2022-09-21T00:59:15;12.73;;;6.25;;
20474;SDS011;10396;51.724;23.090;2022-09-21T01:01:45;13.52;;;6.65;;
20474;SDS011;10396;51.724;23.090;2022-09-21T01:04:13;13.30;;;6.78;;
20474;SDS011;10396;51.724;23.090;2022-09-21T01:06:42;14.18;;;6.82;;
20474;SDS011;10396;51.724;23.090;2022-09-21T01:09:11;13.27;;;6.82;;
20474;SDS011;10396;51.724;23.090;2022-09-21T01:11:42;13.35;;;6.82;;
20474;SDS011;10396;51.724;23.090;2022-09-21T01:14:17;12.65;;;6.75;;
20474;SDS011;10396;51.724;23.090;2022-09-21T01:16:51;13.98;;;6.75;;
20474;SDS011;10396;51.724;23.090;2022-09-21T01:19:32;16.52;;;6.85;;
20474;SDS011;10396;51.724;23.090;2022-09-21T01:22:12;13.70;;;6.82;;
20474;SDS011;10396;51.724;23.090;2022-09-21T01:24:47;13.95;;;6.95;;
20474;SDS011;10396;51.724;23.090;2022-09-21T01:30:22;13.88;;;6.60;;
20474;SDS011;10396;51.724;23.090;2022-09-21T01:32:51;12.73;;;6.85;;
20474;SDS011;10396;51.724;23.090;2022-09-21T01:35:21;15.52;;;7.65;;
20474;SDS011;10396;51.724;23.090;2022-09-21T01:37:53;12.57;;;6.55;;
20474;SDS011;10396;51.724;23.090;2022-09-21T01:40:24;13.18;;;6.97;;
20474;SDS011;10396;51.724;23.090;2022-09-21T01:42:54;14.88;;;7.30;;
20474;SDS011;10396;51.724;23.090;2022-09-21T01:45:25;12.93;;;6.93;;
20474;SDS011;10396;51.724;23.090;2022-09-21T01:47:54;14.93;;;7.20;;
20474;SDS011;10396;51.724;23.090;2022-09-21T01:50:23;16.30;;;7.05;;
20474;SDS011;10396;51.724;23.090;2022-09-21T01:52:52;14.50;;;6.95;;
20474;SDS011;10396;51.724;23.090;2022-09-21T01:55:23;19.08;;;7.72;;
20474;SDS011;10396;51.724;23.090;2022-09-21T01:57:54;16.70;;;7.38;;
20474;SDS011;10396;51.724;23.090;2022-09-21T02:00:26;13.23;;;7.60;;
20474;SDS011;10396;51.724;23.090;2022-09-21T02:02:56;15.38;;;8.25;;
20474;SDS011;10396;51.724;23.090;2022-09-21T02:05:25;17.33;;;7.95;;
20474;SDS011;10396;51.724;23.090;2022-09-21T02:07:54;14.82;;;7.93;;
20474;SDS011;10396;51.724;23.090;2022-09-21T02:10:25;14.68;;;8.13;;
20474;SDS011;10396;51.724;23.090;2022-09-21T02:12:54;16.08;;;8.23;;
20474;SDS011;10396;51.724;23.090;2022-09-21T02:15:29;15.13;;;8.25;;
20474;SDS011;10396;51.724;23.090;2022-09-21T02:17:59;14.95;;;8.63;;
20474;SDS011;10396;51.724;23.090;2022-09-21T02:20:32;16.88;;;8.75;;
20474;SDS011;10396;51.724;23.090;2022-09-21T02:23:04;14.50;;;8.18;;
20474;SDS011;10396;51.724;23.090;2022-09-21T02:25:37;15.45;;;8.88;;
20474;SDS011;10396;51.724;23.090;2022-09-21T02:28:09;17.40;;;9.48;;
20474;SDS011;10396;51.724;23.090;2022-09-21T02:30:42;18.63;;;8.85;;
20474;SDS011;10396;51.724;23.090;2022-09-21T02:33:14;18.00;;;9.00;;
20474;SDS011;10396;51.724;23.090;2022-09-21T02:35:47;16.33;;;8.85;;
20474;SDS011;10396;51.724;23.090;2022-09-21T02:38:19;17.77;;;9.80;;
20474;SDS011;10396;51.724;23.090;2022-09-21T02:40:51;16.08;;;9.23;;
20474;SDS011;10396;51.724;23.090;2022-09-21T02:43:21;19.60;;;9.55;;
20474;SDS011;10396;51.724;23.090;2022-09-21T02:45:55;17.05;;;9.05;;
20474;SDS011;10396;51.724;23.090;2022-09-21T02:48:26;18.08;;;9.20;;
20474;SDS011;10396;51.724;23.090;2022-09-21T02:50:58;15.98;;;8.95;;
20474;SDS011;10396;51.724;23.090;2022-09-21T02:53:30;14.63;;;8.38;;
20474;SDS011;10396;51.724;23.090;2022-09-21T02:56:01;16.73;;;8.73;;
20474;SDS011;10396;51.724;23.090;2022-09-21T02:58:33;15.88;;;8.85;;
20474;SDS011;10396;51.724;23.090;2022-09-21T03:01:04;15.25;;;9.02;;
20474;SDS011;10396;51.724;23.090;2022-09-21T03:03:33;21.88;;;8.68;;
20474;SDS011;10396;51.724;23.090;2022-09-21T03:06:00;15.35;;;8.32;;
20474;SDS011;10396;51.724;23.090;2022-09-21T03:08:28;16.15;;;8.60;;
20474;SDS011;10396;51.724;23.090;2022-09-21T03:10:56;14.80;;;8.68;;
20474;SDS011;10396;51.724;23.090;2022-09-21T03:13:23;14.95;;;8.48;;
20474;SDS011;10396;51.724;23.090;2022-09-21T03:15:57;18.38;;;8.93;;
20474;SDS011;10396;51.724;23.090;2022-09-21T03:18:26;16.15;;;8.27;;
20474;SDS011;10396;51.724;23.090;2022-09-21T03:20:54;16.52;;;8.07;;
20474;SDS011;10396;51.724;23.090;2022-09-21T03:23:22;16.35;;;8.18;;
20474;SDS011;10396;51.724;23.090;2022-09-21T03:25:49;15.18;;;7.88;;
20474;SDS011;10396;51.724;23.090;2022-09-21T03:28:19;14.20;;;8.07;;
20474;SDS011;10396;51.724;23.090;2022-09-21T03:30:47;14.85;;;7.63;;
20474;SDS011;10396;51.724;23.090;2022-09-21T03:33:15;17.02;;;8.75;;
20474;SDS011;10396;51.724;23.090;2022-09-21T03:35:46;16.63;;;8.77;;
20474;SDS011;10396;51.724;23.090;2022-09-21T03:38:14;16.83;;;9.45;;
20474;SDS011;10396;51.724;23.090;2022-09-21T03:40:43;17.15;;;8.50;;
20474;SDS011;10396;51.724;23.090;2022-09-21T03:43:12;15.55;;;8.70;;
20474;SDS011;10396;51.724;23.090;2022-09-21T03:45:39;15.02;;;8.68;;
20474;SDS011;10396;51.724;23.090;2022-09-21T03:48:07;17.15;;;8.60;;
20474;SDS011;10396;51.724;23.090;2022-09-21T03:50:36;14.63;;;8.05;;
20474;SDS011;10396;51.724;23.090;2022-09-21T03:53:05;16.00;;;7.68;;
20474;SDS011;10396;51.724;23.090;2022-09-21T03:55:33;14.68;;;7.93;;
20474;SDS011;10396;51.724;23.090;2022-09-21T03:58:01;14.07;;;7.63;;
20474;SDS011;10396;51.724;23.090;2022-09-21T04:00:29;14.98;;;7.68;;
20474;SDS011;10396;51.724;23.090;2022-09-21T04:02:57;15.10;;;7.38;;
20474;SDS011;10396;51.724;23.090;2022-09-21T04:05:25;14.77;;;8.00;;
20474;SDS011;10396;51.724;23.090;2022-09-21T04:07:53;15.57;;;8.23;;
20474;SDS011;10396;51.724;23.090;2022-09-21T04:10:23;17.55;;;8.48;;
20474;SDS011;10396;51.724;23.090;2022-09-21T04:12:52;16.17;;;7.72;;
20474;SDS011;10396;51.724;23.090;2022-09-21T04:15:23;14.38;;;7.78;;
20474;SDS011;10396;51.724;23.090;2022-09-21T04:17:50;14.52;;;7.43;;
20474;SDS011;10396;51.724;23.090;2022-09-21T04:20:19;15.80;;;7.13;;
20474;SDS011;10396;51.724;23.090;2022-09-21T04:22:46;13.43;;;6.75;;
20474;SDS011;10396;51.724;23.090;2022-09-21T04:25:16;15.05;;;7.47;;
20474;SDS011;10396;51.724;23.090;2022-09-21T04:27:45;14.57;;;7.28;;
20474;SDS011;10396;51.724;23.090;2022-09-21T04:30:12;14.98;;;7.50;;
20474;SDS011;10396;51.724;23.090;2022-09-21T04:32:42;13.43;;;7.05;;
20474;SDS011;10396;51.724;23.090;2022-09-21T04:35:09;13.95;;;6.72;;
20474;SDS011;10396;51.724;23.090;2022-09-21T04:37:37;13.40;;;6.90;;
20474;SDS011;10396;51.724;23.090;2022-09-21T04:40:05;16.92;;;7.03;;
20474;SDS011;10396;51.724;23.090;2022-09-21T04:42:34;14.55;;;7.55;;
20474;SDS011;10396;51.724;23.090;2022-09-21T04:45:03;14.05;;;6.93;;
20474;SDS011;10396;51.724;23.090;2022-09-21T04:47:31;12.60;;;6.40;;
20474;SDS011;10396;51.724;23.090;2022-09-21T04:49:58;12.98;;;7.20;;
20474;SDS011;10396;51.724;23.090;2022-09-21T04:52:26;13.15;;;6.47;;
20474;SDS011;10396;51.724;23.090;2022-09-21T04:54:53;14.48;;;7.00;;
20474;SDS011;10396;51.724;23.090;2022-09-21T04:57:21;15.77;;;7.60;;
20474;SDS011;10396;51.724;23.090;2022-09-21T04:59:48;17.42;;;8.35;;
20474;SDS011;10396;51.724;23.090;2022-09-21T05:02:17;13.00;;;7.10;;
20474;SDS011;10396;51.724;23.090;2022-09-21T05:04:45;16.85;;;7.30;;
20474;SDS011;10396;51.724;23.090;2022-09-21T05:07:12;13.85;;;6.90;;
20474;SDS011;10396;51.724;23.090;2022-09-21T05:09:40;13.85;;;6.25;;
20474;SDS011;10396;51.724;23.090;2022-09-21T05:12:25;14.02;;;6.68;;
20474;SDS011;10396;51.724;23.090;2022-09-21T05:14:52;15.93;;;8.70;;
20474;SDS011;10396;51.724;23.090;2022-09-21T05:17:22;15.80;;;8.10;;
20474;SDS011;10396;51.724;23.090;2022-09-21T05:19:49;14.45;;;7.25;;
20474;SDS011;10396;51.724;23.090;2022-09-21T05:22:18;13.88;;;6.80;;
20474;SDS011;10396;51.724;23.090;2022-09-21T05:24:45;14.18;;;6.63;;
20474;SDS011;10396;51.724;23.090;2022-09-21T05:27:13;14.15;;;6.95;;
20474;SDS011;10396;51.724;23.090;2022-09-21T05:29:41;14.43;;;6.75;;
20474;SDS011;10396;51.724;23.090;2022-09-21T05:32:10;12.32;;;6.40;;
20474;SDS011;10396;51.724;23.090;2022-09-21T05:34:46;13.40;;;6.60;;
20474;SDS011;10396;51.724;23.090;2022-09-21T05:37:23;17.75;;;7.07;;
20474;SDS011;10396;51.724;23.090;2022-09-21T05:40:09;15.20;;;7.68;;
20474;SDS011;10396;51.724;23.090;2022-09-21T05:42:38;13.65;;;7.10;;
20474;SDS011;10396;51.724;23.090;2022-09-21T05:45:06;14.57;;;7.60;;
20474;SDS011;10396;51.724;23.090;2022-09-21T05:47:37;13.40;;;6.93;;
20474;SDS011;10396;51.724;23.090;2022-09-21T05:50:14;14.05;;;6.65;;
20474;SDS011;10396;51.724;23.090;2022-09-21T05:52:47;14.23;;;6.60;;
20474;SDS011;10396;51.724;23.090;2022-09-21T05:55:22;12.48;;;6.03;;
20474;SDS011;10396;51.724;23.090;2022-09-21T05:57:53;13.90;;;6.28;;
20474;SDS011;10396;51.724;23.090;2022-09-21T06:00:25;14.23;;;6.32;;
20474;SDS011;10396;51.724;23.090;2022-09-21T06:02:56;11.75;;;5.82;;
20474;SDS011;10396;51.724;23.090;2022-09-21T06:05:32;9.95;;;5.28;;
20474;SDS011;10396;51.724;23.090;2022-09-21T06:08:00;12.48;;;5.85;;
20474;SDS011;10396;51.724;23.090;2022-09-21T06:10:28;10.85;;;4.95;;
20474;SDS011;10396;51.724;23.090;2022-09-21T06:12:59;10.48;;;4.82;;
20474;SDS011;10396;51.724;23.090;2022-09-21T06:15:27;10.93;;;5.00;;
20474;SDS011;10396;51.724;23.090;2022-09-21T06:17:54;9.50;;;4.70;;
20474;SDS011;10396;51.724;23.090;2022-09-21T06:20:24;11.10;;;4.65;;
20474;SDS011;10396;51.724;23.090;2022-09-21T06:22:54;18.85;;;9.88;;
20474;SDS011;10396;51.724;23.090;2022-09-21T06:25:26;10.50;;;5.47;;
20474;SDS011;10396;51.724;23.090;2022-09-21T06:27:54;11.55;;;4.88;;
20474;SDS011;10396;51.724;23.090;2022-09-21T06:30:21;11.10;;;4.65;;
20474;SDS011;10396;51.724;23.090;2022-09-21T06:32:49;9.07;;;4.60;;
20474;SDS011;10396;51.724;23.090;2022-09-21T06:35:17;14.98;;;5.55;;
20474;SDS011;10396;51.724;23.090;2022-09-21T06:37:44;11.80;;;5.10;;
20474;SDS011;10396;51.724;23.090;2022-09-21T06:40:13;10.48;;;4.97;;
20474;SDS011;10396;51.724;23.090;2022-09-21T06:42:41;11.30;;;5.45;;
20474;SDS011;10396;51.724;23.090;2022-09-21T06:45:08;10.93;;;5.57;;
20474;SDS011;10396;51.724;23.090;2022-09-21T06:47:36;12.35;;;5.90;;
20474;SDS011;10396;51.724;23.090;2022-09-21T06:50:04;11.70;;;5.70;;
20474;SDS011;10396;51.724;23.090;2022-09-21T06:52:32;10.65;;;5.25;;
20474;SDS011;10396;51.724;23.090;2022-09-21T06:55:00;12.32;;;6.00;;
20474;SDS011;10396;51.724;23.090;2022-09-21T06:57:29;10.55;;;5.05;;
20474;SDS011;10396;51.724;23.090;2022-09-21T06:59:57;10.63;;;5.28;;
20474;SDS011;10396;51.724;23.090;2022-09-21T07:02:25;10.98;;;5.40;;
20474;SDS011;10396;51.724;23.090;2022-09-21T07:04:52;10.88;;;5.65;;
20474;SDS011;10396;51.724;23.090;2022-09-21T07:07:20;11.65;;;4.82;;
20474;SDS011;10396;51.724;23.090;2022-09-21T07:09:48;11.18;;;5.22;;
20474;SDS011;10396;51.724;23.090;2022-09-21T07:12:16;10.13;;;4.93;;
20474;SDS011;10396;51.724;23.090;2022-09-21T07:14:45;12.10;;;6.00;;
20474;SDS011;10396;51.724;23.090;2022-09-21T07:17:12;11.50;;;5.30;;
20474;SDS011;10396;51.724;23.090;2022-09-21T07:19:40;10.82;;;5.63;;
20474;SDS011;10396;51.724;23.090;2022-09-21T07:22:07;11.45;;;4.97;;
20474;SDS011;10396;51.724;23.090;2022-09-21T07:24:35;12.15;;;5.18;;
20474;SDS011;10396;51.724;23.090;2022-09-21T07:27:02;10.73;;;4.93;;
20474;SDS011;10396;51.724;23.090;2022-09-21T07:29:31;10.77;;;5.53;;
20474;SDS011;10396;51.724;23.090;2022-09-21T07:32:00;10.55;;;5.35;;
20474;SDS011;10396;51.724;23.090;2022-09-21T07:34:27;10.68;;;5.13;;
20474;SDS011;10396;51.724;23.090;2022-09-21T07:36:55;10.82;;;5.68;;
20474;SDS011;10396;51.724;23.090;2022-09-21T07:39:23;12.52;;;6.03;;
20474;SDS011;10396;51.724;23.090;2022-09-21T07:41:50;12.10;;;5.47;;
20474;SDS011;10396;51.724;23.090;2022-09-21T07:44:18;11.70;;;5.32;;
20474;SDS011;10396;51.724;23.090;2022-09-21T07:46:47;13.25;;;6.50;;
20474;SDS011;10396;51.724;23.090;2022-09-21T07:49:16;12.55;;;5.85;;
20474;SDS011;10396;51.724;23.090;2022-09-21T07:51:44;14.48;;;6.78;;
20474;SDS011;10396;51.724;23.090;2022-09-21T07:54:11;14.93;;;6.78;;
20474;SDS011;10396;51.724;23.090;2022-09-21T07:56:40;13.00;;;6.07;;
20474;SDS011;10396;51.724;23.090;2022-09-21T07:59:28;12.73;;;6.45;;
20474;SDS011;10396;51.724;23.090;2022-09-21T08:01:57;12.63;;;5.85;;
20474;SDS011;10396;51.724;23.090;2022-09-21T08:04:26;13.27;;;6.22;;
20474;SDS011;10396;51.724;23.090;2022-09-21T08:06:54;14.30;;;6.82;;
20474;SDS011;10396;51.724;23.090;2022-09-21T08:09:22;13.52;;;6.75;;
20474;SDS011;10396;51.724;23.090;2022-09-21T08:11:49;13.20;;;6.65;;
20474;SDS011;10396;51.724;23.090;2022-09-21T08:14:17;13.77;;;6.85;;
20474;SDS011;10396;51.724;23.090;2022-09-21T08:16:45;13.60;;;6.93;;
20474;SDS011;10396;51.724;23.090;2022-09-21T08:19:13;17.55;;;8.30;;
20474;SDS011;10396;51.724;23.090;2022-09-21T08:21:43;12.73;;;6.50;;
20474;SDS011;10396;51.724;23.090;2022-09-21T08:24:11;12.32;;;6.40;;
20474;SDS011;10396;51.724;23.090;2022-09-21T08:26:39;14.38;;;7.32;;
20474;SDS011;10396;51.724;23.090;2022-09-21T08:29:07;12.00;;;6.25;;
20474;SDS011;10396;51.724;23.090;2022-09-21T08:31:35;13.25;;;6.25;;
20474;SDS011;10396;51.724;23.090;2022-09-21T08:34:02;12.70;;;6.25;;
20474;SDS011;10396;51.724;23.090;2022-09-21T08:36:30;12.15;;;5.90;;
20474;SDS011;10396;51.724;23.090;2022-09-21T08:39:00;11.73;;;5.90;;
20474;SDS011;10396;51.724;23.090;2022-09-21T08:41:32;11.68;;;5.35;;
20474;SDS011;10396;51.724;23.090;2022-09-21T08:44:12;12.20;;;5.90;;
20474;SDS011;10396;51.724;23.090;2022-09-21T08:46:41;10.75;;;5.22;;
20474;SDS011;10396;51.724;23.090;2022-09-21T08:49:10;11.90;;;4.80;;
20474;SDS011;10396;51.724;23.090;2022-09-21T08:51:41;9.95;;;4.95;;
20474;SDS011;10396;51.724;23.090;2022-09-21T08:54:14;11.35;;;5.13;;
20474;SDS011;10396;51.724;23.090;2022-09-21T08:56:44;10.38;;;4.95;;
20474;SDS011;10396;51.724;23.090;2022-09-21T08:59:12;8.63;;;3.97;;
20474;SDS011;10396;51.724;23.090;2022-09-21T09:01:45;7.07;;;3.60;;
20474;SDS011;10396;51.724;23.090;2022-09-21T09:04:25;7.63;;;3.20;;
20474;SDS011;10396;51.724;23.090;2022-09-21T09:07:04;7.63;;;3.30;;
20474;SDS011;10396;51.724;23.090;2022-09-21T09:09:43;12.10;;;5.45;;
20474;SDS011;10396;51.724;23.090;2022-09-21T09:12:21;8.85;;;3.45;;
20474;SDS011;10396;51.724;23.090;2022-09-21T09:17:57;5.95;;;2.80;;
20474;SDS011;10396;51.724;23.090;2022-09-21T09:20:28;4.45;;;2.60;;
20474;SDS011;10396;51.724;23.090;2022-09-21T09:23:01;5.10;;;2.55;;
20474;SDS011;10396;51.724;23.090;2022-09-21T09:25:35;4.32;;;2.20;;
20474;SDS011;10396;51.724;23.090;2022-09-21T09:28:16;5.63;;;2.38;;
20474;SDS011;10396;51.724;23.090;2022-09-21T09:30:51;7.80;;;2.28;;
20474;SDS011;10396;51.724;23.090;2022-09-21T09:33:25;3.05;;;2.00;;
20474;SDS011;10396;51.724;23.090;2022-09-21T09:35:54;3.53;;;2.00;;
20474;SDS011;10396;51.724;23.090;2022-09-21T09:38:26;2.45;;;1.70;;
20474;SDS011;10396;51.724;23.090;2022-09-21T09:41:04;3.65;;;2.00;;
20474;SDS011;10396;51.724;23.090;2022-09-21T09:43:41;3.47;;;2.08;;
20474;SDS011;10396;51.724;23.090;2022-09-21T09:46:14;5.30;;;1.83;;
20474;SDS011;10396;51.724;23.090;2022-09-21T09:48:58;4.30;;;2.00;;
20474;SDS011;10396;51.724;23.090;2022-09-21T09:51:33;3.10;;;2.00;;
20474;SDS011;10396;51.724;23.090;2022-09-21T09:54:01;3.83;;;2.05;;
20474;SDS011;10396;51.724;23.090;2022-09-21T09:56:31;3.25;;;1.80;;
20474;SDS011;10396;51.724;23.090;2022-09-21T09:58:59;5.10;;;2.33;;
20474;SDS011;10396;51.724;23.090;2022-09-21T10:01:36;4.03;;;2.15;;
20474;SDS011;10396;51.724;23.090;2022-09-21T10:04:06;5.35;;;2.50;;
20474;SDS011;10396;51.724;23.090;2022-09-21T10:06:35;8.13;;;3.10;;
20474;SDS011;10396;51.724;23.090;2022-09-21T10:09:16;8.52;;;3.65;;
20474;SDS011;10396;51.724;23.090;2022-09-21T10:11:46;7.88;;;3.67;;
20474;SDS011;10396;51.724;23.090;2022-09-21T10:14:16;10.27;;;4.10;;
20474;SDS011;10396;51.724;23.090;2022-09-21T10:16:45;8.15;;;3.95;;
20474;SDS011;10396;51.724;23.090;2022-09-21T10:19:17;8.80;;;4.22;;
20474;SDS011;10396;51.724;23.090;2022-09-21T10:21:46;8.85;;;4.50;;
20474;SDS011;10396;51.724;23.090;2022-09-21T10:24:22;9.52;;;4.53;;
20474;SDS011;10396;51.724;23.090;2022-09-21T10:26:53;9.98;;;5.47;;
20474;SDS011;10396;51.724;23.090;2022-09-21T10:29:29;11.30;;;5.47;;
20474;SDS011;10396;51.724;23.090;2022-09-21T10:31:59;11.98;;;5.07;;
20474;SDS011;10396;51.724;23.090;2022-09-21T10:34:27;11.55;;;5.03;;
20474;SDS011;10396;51.724;23.090;2022-09-21T10:36:56;9.93;;;4.93;;
20474;SDS011;10396;51.724;23.090;2022-09-21T10:39:26;11.55;;;4.97;;
20474;SDS011;10396;51.724;23.090;2022-09-21T10:42:03;9.68;;;4.97;;
20474;SDS011;10396;51.724;23.090;2022-09-21T10:44:37;10.27;;;5.18;;
20474;SDS011;10396;51.724;23.090;2022-09-21T10:47:19;11.75;;;5.90;;
20474;SDS011;10396;51.724;23.090;2022-09-21T10:49:49;12.63;;;5.55;;
20474;SDS011;10396;51.724;23.090;2022-09-21T10:52:19;11.73;;;5.32;;
20474;SDS011;10396;51.724;23.090;2022-09-21T10:54:48;11.10;;;5.40;;
20474;SDS011;10396;51.724;23.090;2022-09-21T10:57:19;12.13;;;5.82;;
20474;SDS011;10396;51.724;23.090;2022-09-21T10:59:49;10.65;;;5.43;;
20474;SDS011;10396;51.724;23.090;2022-09-21T11:02:24;12.40;;;5.90;;
20474;SDS011;10396;51.724;23.090;2022-09-21T11:07:36;11.65;;;6.07;;
20474;SDS011;10396;51.724;23.090;2022-09-21T11:10:09;9.00;;;4.43;;
20474;SDS011;10396;51.724;23.090;2022-09-21T11:12:44;9.15;;;4.60;;
20474;SDS011;10396;51.724;23.090;2022-09-21T11:15:29;11.85;;;5.47;;
20474;SDS011;10396;51.724;23.090;2022-09-21T11:18:04;11.15;;;5.85;;
20474;SDS011;10396;51.724;23.090;2022-09-21T11:20:35;10.93;;;5.97;;
20474;SDS011;10396;51.724;23.090;2022-09-21T11:23:10;15.43;;;6.05;;
20474;SDS011;10396;51.724;23.090;2022-09-21T11:25:47;10.10;;;5.88;;
20474;SDS011;10396;51.724;23.090;2022-09-21T11:28:22;12.60;;;6.50;;
20474;SDS011;10396;51.724;23.090;2022-09-21T11:31:00;17.42;;;8.95;;
20474;SDS011;10396;51.724;23.090;2022-09-21T11:33:41;11.65;;;6.55;;
20474;SDS011;10396;51.724;23.090;2022-09-21T11:36:17;11.00;;;6.13;;
20474;SDS011;10396;51.724;23.090;2022-09-21T11:38:49;14.27;;;7.55;;
20474;SDS011;10396;51.724;23.090;2022-09-21T11:41:28;13.20;;;5.10;;
20474;SDS011;10396;51.724;23.090;2022-09-21T11:44:15;9.27;;;4.90;;
20474;SDS011;10396;51.724;23.090;2022-09-21T11:46:54;10.70;;;4.78;;
20474;SDS011;10396;51.724;23.090;2022-09-21T11:49:39;10.90;;;4.65;;
20474;SDS011;10396;51.724;23.090;2022-09-21T11:52:30;8.35;;;4.30;;
20474;SDS011;10396;51.724;23.090;2022-09-21T11:57:59;9.85;;;4.50;;
20474;SDS011;10396;51.724;23.090;2022-09-21T12:00:35;9.23;;;4.50;;
20474;SDS011;10396;51.724;23.090;2022-09-21T12:06:13;10.25;;;5.38;;
20474;SDS011;10396;51.724;23.090;2022-09-21T12:11:48;10.18;;;4.60;;
20474;SDS011;10396;51.724;23.090;2022-09-21T12:14:21;8.77;;;4.20;;
20474;SDS011;10396;51.724;23.090;2022-09-21T12:16:55;10.18;;;5.00;;
20474;SDS011;10396;51.724;23.090;2022-09-21T12:19:28;8.57;;;4.18;;
20474;SDS011;10396;51.724;23.090;2022-09-21T12:22:04;7.57;;;3.70;;
20474;SDS011;10396;51.724;23.090;2022-09-21T12:24:35;10.57;;;3.35;;
20474;SDS011;10396;51.724;23.090;2022-09-21T12:27:08;5.65;;;3.03;;
20474;SDS011;10396;51.724;23.090;2022-09-21T12:29:40;7.95;;;3.50;;
20474;SDS011;10396;51.724;23.090;2022-09-21T12:32:16;7.68;;;2.53;;
20474;SDS011;10396;51.724;23.090;2022-09-21T12:34:47;2.33;;;1.58;;
20474;SDS011;10396;51.724;23.090;2022-09-21T12:37:18;2.85;;;1.90;;
20474;SDS011;10396;51.724;23.090;2022-09-21T12:39:50;2.03;;;1.60;;
20474;SDS011;10396;51.724;23.090;2022-09-21T12:42:23;2.97;;;1.80;;
20474;SDS011;10396;51.724;23.090;2022-09-21T12:44:55;2.33;;;1.75;;
20474;SDS011;10396;51.724;23.090;2022-09-21T12:47:28;3.22;;;1.92;;
20474;SDS011;10396;51.724;23.090;2022-09-21T12:50:19;3.65;;;2.20;;
20474;SDS011;10396;51.724;23.090;2022-09-21T12:52:48;5.68;;;2.70;;
20474;SDS011;10396;51.724;23.090;2022-09-21T12:55:21;5.57;;;2.75;;
20474;SDS011;10396;51.724;23.090;2022-09-21T12:57:55;5.57;;;2.75;;
20474;SDS011;10396;51.724;23.090;2022-09-21T13:00:26;4.35;;;2.22;;
20474;SDS011;10396;51.724;23.090;2022-09-21T13:03:00;4.65;;;2.13;;
20474;SDS011;10396;51.724;23.090;2022-09-21T13:05:33;11.83;;;6.67;;
20474;SDS011;10396;51.724;23.090;2022-09-21T13:08:04;8.25;;;3.78;;
20474;SDS011;10396;51.724;23.090;2022-09-21T13:10:42;6.88;;;3.20;;
20474;SDS011;10396;51.724;23.090;2022-09-21T13:13:22;6.95;;;3.10;;
20474;SDS011;10396;51.724;23.090;2022-09-21T13:15:53;4.15;;;2.25;;
20474;SDS011;10396;51.724;23.090;2022-09-21T13:18:23;1.85;;;1.60;;
20474;SDS011;10396;51.724;23.090;2022-09-21T13:20:52;3.05;;;1.85;;
20474;SDS011;10396;51.724;23.090;2022-09-21T13:23:22;3.63;;;2.00;;
20474;SDS011;10396;51.724;23.090;2022-09-21T13:25:58;3.58;;;1.92;;
20474;SDS011;10396;51.724;23.090;2022-09-21T13:34:34;4.90;;;2.30;;
20474;SDS011;10396;51.724;23.090;2022-09-21T13:43:17;3.60;;;1.92;;
20474;SDS011;10396;51.724;23.090;2022-09-21T13:45:54;2.85;;;1.73;;
20474;SDS011;10396;51.724;23.090;2022-09-21T13:48:26;4.00;;;2.05;;
20474;SDS011;10396;51.724;23.090;2022-09-21T13:51:04;7.82;;;2.58;;
20474;SDS011;10396;51.724;23.090;2022-09-21T13:53:34;6.63;;;2.70;;
20474;SDS011;10396;51.724;23.090;2022-09-21T13:56:06;5.85;;;2.30;;
20474;SDS011;10396;51.724;23.090;2022-09-21T13:58:39;4.20;;;2.30;;
20474;SDS011;10396;51.724;23.090;2022-09-21T14:01:13;10.63;;;4.10;;
20474;SDS011;10396;51.724;23.090;2022-09-21T14:03:43;6.43;;;2.83;;
20474;SDS011;10396;51.724;23.090;2022-09-21T14:06:15;6.15;;;2.50;;
20474;SDS011;10396;51.724;23.090;2022-09-21T14:08:48;4.65;;;2.65;;
20474;SDS011;10396;51.724;23.090;2022-09-21T14:11:20;5.88;;;2.80;;
20474;SDS011;10396;51.724;23.090;2022-09-21T14:13:59;5.88;;;2.92;;
20474;SDS011;10396;51.724;23.090;2022-09-21T14:22:38;5.97;;;2.60;;
20474;SDS011;10396;51.724;23.090;2022-09-21T14:25:21;8.50;;;2.95;;
20474;SDS011;10396;51.724;23.090;2022-09-21T14:27:57;8.88;;;3.53;;
20474;SDS011;10396;51.724;23.090;2022-09-21T14:30:26;7.50;;;3.38;;
20474;SDS011;10396;51.724;23.090;2022-09-21T14:33:02;5.47;;;2.70;;
20474;SDS011;10396;51.724;23.090;2022-09-21T14:35:35;5.55;;;2.35;;
20474;SDS011;10396;51.724;23.090;2022-09-21T14:38:06;4.88;;;2.60;;
20474;SDS011;10396;51.724;23.090;2022-09-21T14:40:44;5.30;;;2.53;;
20474;SDS011;10396;51.724;23.090;2022-09-21T14:43:15;5.47;;;2.55;;
20474;SDS011;10396;51.724;23.090;2022-09-21T14:45:53;6.68;;;2.83;;
20474;SDS011;10396;51.724;23.090;2022-09-21T14:48:40;4.88;;;2.60;;
20474;SDS011;10396;51.724;23.090;2022-09-21T14:51:16;5.82;;;2.45;;
20474;SDS011;10396;51.724;23.090;2022-09-21T14:54:01;3.72;;;1.90;;
20474;SDS011;10396;51.724;23.090;2022-09-21T14:56:56;2.67;;;1.45;;
20474;SDS011;10396;51.724;23.090;2022-09-21T14:59:40;2.22;;;1.30;;
20474;SDS011;10396;51.724;23.090;2022-09-21T15:02:16;1.40;;;1.30;;
20474;SDS011;10396;51.724;23.090;2022-09-21T15:04:57;1.73;;;1.30;;
20474;SDS011;10396;51.724;23.090;2022-09-21T15:07:33;1.50;;;1.23;;
20474;SDS011;10396;51.724;23.090;2022-09-21T15:10:27;2.05;;;1.55;;
20474;SDS011;10396;51.724;23.090;2022-09-21T15:13:20;3.00;;;1.80;;
20474;SDS011;10396;51.724;23.090;2022-09-21T15:16:01;2.55;;;1.65;;
20474;SDS011;10396;51.724;23.090;2022-09-21T15:18:38;2.92;;;1.50;;
20474;SDS011;10396;51.724;23.090;2022-09-21T15:21:15;1.63;;;1.40;;
20474;SDS011;10396;51.724;23.090;2022-09-21T15:23:47;3.13;;;1.52;;
20474;SDS011;10396;51.724;23.090;2022-09-21T15:26:18;1.98;;;1.50;;
20474;SDS011;10396;51.724;23.090;2022-09-21T15:28:49;8.93;;;4.40;;